Time;durP1;ratioP1;P1;durP2;ratioP2;P2;SDS_P1;SDS_P2;PMS_P1;PMS_P2;Temp;Humidity;BMP_temperature;BMP_pressure;BME280_temperature;BME280_humidity;BME280_pressure;Samples;Min_cycle;Max_cycle;Signal;HPM_P1;HPM_P2
2022/03/11 00:01:05;;;;;;;;;13.00;13.00;;;;;21.61;39.65;102987.04;110412;1262;18890;-48
2022/03/11 00:03:32;;;;;;;;;16.50;14.00;;;;;21.61;39.62;102985.73;110277;1262;19455;-48
2022/03/11 00:06:00;;;;;;;;;15.00;13.00;;;;;21.61;39.75;102987.19;110420;1262;20099;-48
2022/03/11 00:08:28;;;;;;;;;13.67;13.00;;;;;21.61;39.43;102991.55;110314;1262;22205;-50
2022/03/11 00:10:55;;;;;;;;;13.00;12.50;;;;;21.62;39.43;102994.57;110373;1261;22588;-48
2022/03/11 00:13:23;;;;;;;;;12.67;12.33;;;;;21.62;39.48;102996.76;110402;1261;22380;-48
2022/03/11 00:15:51;;;;;;;;;14.00;13.00;;;;;21.62;39.31;102997.16;110383;1261;18878;-49
2022/03/11 00:18:20;;;;;;;;;14.00;13.00;;;;;21.63;39.34;102999.42;110422;1261;19673;-49
2022/03/11 00:20:47;;;;;;;;;12.00;12.00;;;;;21.62;39.19;102992.21;110448;1262;21081;-48
2022/03/11 00:23:15;;;;;;;;;16.00;14.00;;;;;21.62;39.39;102982.42;110396;1261;19062;-48
2022/03/11 00:25:42;;;;;;;;;13.00;12.33;;;;;21.62;39.18;102975.12;110415;1261;19536;-48
2022/03/11 00:28:09;;;;;;;;;13.33;13.33;;;;;21.61;39.28;102975.02;110421;1262;18757;-49
2022/03/11 00:30:37;;;;;;;;;10.00;10.00;;;;;21.62;39.15;102972.04;110382;1261;19482;-49
2022/03/11 00:33:04;;;;;;;;;14.00;13.00;;;;;21.61;39.23;102970.44;110482;1262;19447;-51
2022/03/11 00:35:32;;;;;;;;;12.67;12.67;;;;;21.60;39.13;102968.91;110338;1261;19347;-48
2022/03/11 00:37:59;;;;;;;;;16.00;14.00;;;;;21.60;39.11;102969.98;110347;1261;18645;-49
2022/03/11 00:40:27;;;;;;;;;12.50;12.50;;;;;21.60;39.11;102972.04;110399;1262;20164;-46
2022/03/11 00:42:54;;;;;;;;;13.00;12.67;;;;;21.60;39.08;102972.88;110409;1262;18753;-50
2022/03/11 00:45:23;;;;;;;;;15.67;12.67;;;;;21.60;38.93;102972.53;110451;1262;18951;-47
2022/03/11 00:47:50;;;;;;;;;14.00;14.00;;;;;21.61;39.00;102971.76;110450;1261;19885;-48
2022/03/11 00:50:17;;;;;;;;;13.33;13.33;;;;;21.60;39.13;102973.45;110386;1261;23179;-48
2022/03/11 00:52:44;;;;;;;;;14.00;12.00;;;;;21.60;39.05;102974.91;110408;1261;19104;-49
2022/03/11 00:55:12;;;;;;;;;13.33;13.00;;;;;21.58;38.89;102970.33;110403;1261;19757;-48
2022/03/11 00:57:39;;;;;;;;;12.00;12.00;;;;;21.58;38.64;102971.39;110403;1262;20152;-48
2022/03/11 01:00:07;;;;;;;;;14.00;13.00;;;;;21.58;38.79;102971.76;110435;1261;18776;-46
2022/03/11 01:02:34;;;;;;;;;13.00;12.00;;;;;21.58;38.66;102970.85;110423;1261;19867;-48
2022/03/11 01:05:01;;;;;;;;;14.00;13.00;;;;;21.58;38.74;102973.43;110368;1261;18850;-47
2022/03/11 01:07:29;;;;;;;;;12.33;10.67;;;;;21.57;38.53;102971.09;110420;1262;18861;-49
2022/03/11 01:09:56;;;;;;;;;12.67;12.33;;;;;21.58;38.70;102965.98;110441;1262;19499;-48
2022/03/11 01:12:23;;;;;;;;;16.00;13.67;;;;;21.57;38.66;102960.74;110429;1262;19074;-48
2022/03/11 01:14:50;;;;;;;;;14.00;14.00;;;;;21.57;38.51;102963.15;110455;1262;19005;-48
2022/03/11 01:17:18;;;;;;;;;16.00;13.00;;;;;21.57;38.48;102965.63;110307;1261;20991;-48
2022/03/11 01:19:45;;;;;;;;;14.00;13.00;;;;;21.56;38.37;102966.48;109867;1261;580996;-48
2022/03/11 01:22:12;;;;;;;;;13.00;12.00;;;;;21.55;38.44;102964.20;110282;1262;18849;-48
2022/03/11 01:24:39;;;;;;;;;12.67;11.33;;;;;21.57;38.34;102967.17;110240;1262;19784;-49
2022/03/11 01:27:07;;;;;;;;;16.00;15.33;;;;;21.56;38.51;102973.77;110336;1262;18814;-49
2022/03/11 01:29:34;;;;;;;;;12.33;12.00;;;;;21.56;38.35;102979.40;110335;1262;20285;-49
2022/03/11 01:32:01;;;;;;;;;14.67;13.00;;;;;21.57;38.21;102980.24;110312;1262;19802;-49
2022/03/11 01:34:29;;;;;;;;;14.67;12.33;;;;;21.55;38.30;102980.95;110269;1262;19124;-49
2022/03/11 01:36:56;;;;;;;;;12.00;11.00;;;;;21.56;38.19;102985.96;110221;1262;18882;-47
2022/03/11 01:39:23;;;;;;;;;14.67;13.67;;;;;21.54;38.34;102981.73;110175;1262;19805;-48
2022/03/11 01:41:50;;;;;;;;;12.00;12.00;;;;;21.54;38.02;102981.92;110218;1261;22249;-46
2022/03/11 01:44:18;;;;;;;;;13.00;10.00;;;;;21.54;38.26;102978.10;110205;1261;18884;-47
2022/03/11 01:46:45;;;;;;;;;13.33;12.00;;;;;21.55;38.20;102980.92;110291;1262;19920;-47
2022/03/11 01:49:12;;;;;;;;;13.00;12.67;;;;;21.55;37.94;102981.15;110232;1261;18829;-48
2022/03/11 01:51:39;;;;;;;;;12.50;12.00;;;;;21.55;38.18;102982.27;110268;1262;18711;-47
2022/03/11 01:54:06;;;;;;;;;13.50;12.00;;;;;21.55;37.93;102985.52;110090;1264;19537;-47
2022/03/11 01:56:34;;;;;;;;;12.50;12.00;;;;;21.54;38.16;102981.20;110160;1264;19133;-46
2022/03/11 01:59:01;;;;;;;;;12.67;12.00;;;;;21.55;38.01;102985.48;110120;1265;18994;-53
2022/03/11 02:01:28;;;;;;;;;12.00;12.00;;;;;21.55;38.03;102989.14;110262;1262;19825;-48
2022/03/11 02:03:57;;;;;;;;;14.67;13.00;;;;;21.55;38.08;102990.23;110273;1262;22880;-48
2022/03/11 02:06:24;;;;;;;;;12.33;10.00;;;;;21.54;37.94;102985.71;110081;1264;19015;-50
2022/03/11 02:08:51;;;;;;;;;12.00;12.00;;;;;21.55;37.84;102986.81;110121;1265;19631;-50
2022/03/11 02:11:18;;;;;;;;;14.33;13.00;;;;;21.54;37.83;102985.62;110157;1262;18877;-48
2022/03/11 02:13:46;;;;;;;;;17.33;14.00;;;;;21.53;37.90;102986.37;110262;1262;18780;-49
2022/03/11 02:16:13;;;;;;;;;17.00;16.00;;;;;21.54;37.81;102987.07;110250;1261;19518;-48
2022/03/11 02:18:40;;;;;;;;;13.00;13.00;;;;;21.54;37.93;102988.34;110266;1261;18826;-47
2022/03/11 02:21:09;;;;;;;;;14.00;13.00;;;;;21.53;37.77;102987.69;110039;1264;19111;-51
2022/03/11 02:23:36;;;;;;;;;12.67;12.00;;;;;21.53;37.86;102988.76;110211;1262;20345;-45
2022/03/11 02:26:03;;;;;;;;;14.00;14.00;;;;;21.53;37.62;102990.61;110266;1262;18678;-50
2022/03/11 02:28:31;;;;;;;;;12.33;12.00;;;;;21.53;37.61;102986.39;110234;1262;19063;-49
2022/03/11 02:30:58;;;;;;;;;12.50;12.00;;;;;21.53;37.49;102988.25;110299;1261;20916;-48
2022/03/11 02:33:25;;;;;;;;;14.50;12.00;;;;;21.54;37.57;102990.37;110046;1263;19296;-48
2022/03/11 02:35:52;;;;;;;;;16.00;14.00;;;;;21.53;37.65;102987.31;110086;1265;19465;-48
2022/03/11 02:38:20;;;;;;;;;13.00;13.00;;;;;21.52;37.54;102980.83;110261;1262;19591;-48
2022/03/11 02:40:47;;;;;;;;;13.00;12.00;;;;;21.52;37.48;102979.03;110656;1262;19105;-50
2022/03/11 02:43:15;;;;;;;;;11.67;11.67;;;;;21.53;37.61;102980.59;110261;1262;18866;-49
2022/03/11 02:45:42;;;;;;;;;13.67;12.00;;;;;21.52;37.65;102976.63;110238;1262;20559;-48
2022/03/11 02:48:09;;;;;;;;;10.00;10.00;;;;;21.52;37.53;102977.96;110076;1264;18812;-49
2022/03/11 02:50:37;;;;;;;;;14.00;14.00;;;;;21.52;37.44;102978.09;110260;1261;18841;-46
2022/03/11 02:53:04;;;;;;;;;14.00;14.00;;;;;21.53;37.50;102978.93;110144;1263;19496;-47
2022/03/11 02:55:31;;;;;;;;;14.67;13.00;;;;;21.52;37.58;102977.17;110127;1265;21020;-48
2022/03/11 02:57:58;;;;;;;;;12.67;12.67;;;;;21.53;37.39;102979.29;110240;1261;19480;-47
2022/03/11 03:00:26;;;;;;;;;13.00;12.50;;;;;21.53;37.22;102980.40;110080;1264;19523;-47
2022/03/11 03:02:53;;;;;;;;;13.00;12.50;;;;;21.52;37.43;102982.28;110098;1265;23038;-50
2022/03/11 03:05:20;;;;;;;;;14.67;13.00;;;;;21.52;37.21;102981.21;110117;1265;18695;-49
2022/03/11 03:07:48;;;;;;;;;12.00;12.00;;;;;21.52;37.34;102980.14;110115;1262;19673;-48
2022/03/11 03:10:15;;;;;;;;;12.67;12.00;;;;;21.51;37.45;102987.86;110171;1262;18783;-48
2022/03/11 03:12:42;;;;;;;;;11.33;10.00;;;;;21.49;37.39;102985.80;110298;1262;19775;-47
2022/03/11 03:15:10;;;;;;;;;12.00;12.00;;;;;21.51;37.25;102988.23;110127;1264;20982;-48
2022/03/11 03:17:37;;;;;;;;;14.00;12.67;;;;;21.49;37.50;102993.08;110219;1261;23491;-50
2022/03/11 03:20:04;;;;;;;;;17.00;13.67;;;;;21.49;37.31;102992.76;110237;1262;18813;-47
2022/03/11 03:22:31;;;;;;;;;14.00;13.00;;;;;21.48;37.20;102990.45;110360;1261;19575;-48
2022/03/11 03:24:58;;;;;;;;;13.00;12.00;;;;;21.47;37.39;102994.52;110266;1261;18712;-49
2022/03/11 03:27:26;;;;;;;;;13.00;13.00;;;;;21.47;37.24;102991.27;110114;1263;18818;-48
2022/03/11 03:29:53;;;;;;;;;12.33;11.67;;;;;21.46;37.01;102990.08;110122;1264;19579;-49
2022/03/11 03:32:20;;;;;;;;;16.00;13.00;;;;;21.46;36.98;102990.13;110103;1265;18840;-49
2022/03/11 03:34:47;;;;;;;;;14.00;12.00;;;;;21.46;37.25;102991.14;110202;1262;19112;-47
2022/03/11 03:37:15;;;;;;;;;14.67;12.00;;;;;21.46;37.22;102993.17;110271;1261;19448;-46
2022/03/11 03:39:42;;;;;;;;;12.67;12.67;;;;;21.46;37.04;102990.81;110279;1261;19317;-50
2022/03/11 03:42:09;;;;;;;;;17.00;13.00;;;;;21.45;37.18;102993.94;110124;1263;18850;-49
2022/03/11 03:44:36;;;;;;;;;14.67;13.00;;;;;21.45;36.97;102992.15;110067;1264;19666;-47
2022/03/11 03:47:04;;;;;;;;;12.00;10.67;;;;;21.46;37.13;102996.12;110095;1264;18856;-47
2022/03/11 03:49:31;;;;;;;;;16.67;13.00;;;;;21.47;36.96;103000.05;110269;1262;18855;-46
2022/03/11 03:51:59;;;;;;;;;14.00;12.00;;;;;21.46;36.96;102997.54;110257;1261;19537;-48
2022/03/11 03:54:26;;;;;;;;;14.00;13.33;;;;;21.46;37.05;102997.21;110257;1261;23925;-47
2022/03/11 03:56:53;;;;;;;;;14.00;12.00;;;;;21.45;36.92;102988.19;110145;1262;18909;-49
2022/03/11 03:59:20;;;;;;;;;12.00;12.00;;;;;21.45;36.83;102991.84;110110;1262;19947;-47
2022/03/11 04:01:48;;;;;;;;;16.00;13.00;;;;;21.45;36.83;102995.45;110227;1262;18863;-49
2022/03/11 04:04:15;;;;;;;;;13.33;12.00;;;;;21.41;37.04;102990.45;110195;1262;19489;-48
2022/03/11 04:06:43;;;;;;;;;14.00;13.00;;;;;21.45;36.99;103001.42;110288;1262;19562;-48
2022/03/11 04:09:10;;;;;;;;;12.00;11.33;;;;;21.46;36.81;102999.02;110152;1264;19101;-49
2022/03/11 04:11:37;;;;;;;;;14.00;13.00;;;;;21.45;36.86;102990.66;110223;1262;22261;-47
2022/03/11 04:14:05;;;;;;;;;12.00;10.67;;;;;21.46;36.87;102991.70;110220;1262;19484;-48
2022/03/11 04:16:32;;;;;;;;;11.33;10.00;;;;;21.45;36.71;102992.70;110249;1261;18831;-47
2022/03/11 04:18:59;;;;;;;;;13.00;12.00;;;;;21.45;36.69;102988.53;110281;1262;18779;-48
2022/03/11 04:21:26;;;;;;;;;14.67;12.67;;;;;21.46;36.85;102994.96;110129;1264;24918;-50
2022/03/11 04:23:54;;;;;;;;;16.33;13.00;;;;;21.44;36.84;102993.70;110247;1262;19671;-51
2022/03/11 04:26:21;;;;;;;;;12.00;10.00;;;;;21.45;36.78;102996.58;110201;1261;19251;-53
2022/03/11 04:28:48;;;;;;;;;14.00;12.50;;;;;21.43;36.72;102998.52;110235;1261;19617;-49
2022/03/11 04:31:15;;;;;;;;;13.00;12.00;;;;;21.44;36.88;102997.95;110283;1262;22341;-48
2022/03/11 04:33:43;;;;;;;;;12.67;12.00;;;;;21.44;36.66;102992.66;110276;1261;18805;-48
2022/03/11 04:36:10;;;;;;;;;13.00;12.00;;;;;21.43;36.88;102995.79;110163;1265;19682;-49
2022/03/11 04:38:37;;;;;;;;;13.00;12.50;;;;;21.42;36.71;102994.95;110161;1262;20085;-49
2022/03/11 04:41:05;;;;;;;;;16.00;12.50;;;;;21.41;36.73;102994.85;110172;1262;19010;-49
2022/03/11 04:43:32;;;;;;;;;13.00;11.33;;;;;21.41;36.79;102993.77;110284;1262;19548;-49
2022/03/11 04:45:59;;;;;;;;;10.00;10.00;;;;;21.42;36.61;102996.62;110269;1262;18746;-48
2022/03/11 04:48:26;;;;;;;;;14.00;13.00;;;;;21.41;36.65;102998.52;110141;1264;18950;-49
2022/03/11 04:50:53;;;;;;;;;11.33;11.33;;;;;21.41;36.75;102995.65;110253;1262;19440;-49
2022/03/11 04:53:21;;;;;;;;;12.00;11.33;;;;;21.39;36.66;102991.16;110213;1262;23970;-48
2022/03/11 04:55:48;;;;;;;;;14.00;13.00;;;;;21.41;36.60;102994.50;110260;1261;18891;-47
2022/03/11 04:58:15;;;;;;;;;12.00;12.00;;;;;21.41;36.72;102999.98;110161;1262;19529;-49
2022/03/11 05:00:43;;;;;;;;;13.00;13.00;;;;;21.41;36.63;102999.11;110276;1261;22325;-48
2022/03/11 05:03:10;;;;;;;;;14.00;13.00;;;;;21.41;36.49;102999.46;110142;1264;19432;-51
2022/03/11 05:05:37;;;;;;;;;12.50;10.00;;;;;21.42;36.43;103000.95;110057;1265;19697;-48
2022/03/11 05:08:05;;;;;;;;;13.33;12.00;;;;;21.42;36.43;103004.46;109987;1265;21205;-47
2022/03/11 05:10:32;;;;;;;;;14.00;13.00;;;;;21.42;36.45;103005.58;110093;1264;19081;-47
2022/03/11 05:12:59;;;;;;;;;13.33;13.33;;;;;21.41;36.56;103006.66;110124;1265;19732;-48
2022/03/11 05:15:27;;;;;;;;;13.33;12.00;;;;;21.41;36.35;103007.77;110119;1264;18762;-49
2022/03/11 05:17:54;;;;;;;;;13.33;12.67;;;;;21.40;36.50;103009.66;110130;1263;23498;-49
2022/03/11 05:20:21;;;;;;;;;12.33;12.00;;;;;21.41;36.61;103014.92;110067;1264;19505;-49
2022/03/11 05:22:50;;;;;;;;;14.00;12.00;;;;;21.40;36.33;103012.77;110090;1264;18714;-47
2022/03/11 05:25:18;;;;;;;;;13.00;11.33;;;;;21.41;36.34;103013.98;110153;1264;18875;-47
2022/03/11 05:27:45;;;;;;;;;13.00;13.00;;;;;21.40;36.30;103012.58;110096;1264;21903;-47
2022/03/11 05:30:13;;;;;;;;;13.50;13.00;;;;;21.40;36.22;103014.79;110121;1265;18945;-49
2022/03/11 05:32:41;;;;;;;;;14.00;13.00;;;;;21.40;36.43;103011.31;110109;1264;18825;-48
2022/03/11 05:35:08;;;;;;;;;12.00;11.33;;;;;21.41;36.41;103012.76;110069;1264;19541;-48
2022/03/11 05:37:35;;;;;;;;;13.67;12.67;;;;;21.39;36.23;103011.36;110062;1265;21027;-51
2022/03/11 05:40:02;;;;;;;;;13.00;13.00;;;;;21.39;36.29;103013.54;110010;1264;19752;-47
2022/03/11 05:42:30;;;;;;;;;13.00;12.33;;;;;21.39;36.43;103019.58;110104;1263;19494;-48
2022/03/11 05:44:57;;;;;;;;;13.67;13.00;;;;;21.39;36.13;103018.69;110114;1264;18738;-49
2022/03/11 05:47:24;;;;;;;;;12.00;12.00;;;;;21.41;36.18;103020.52;110105;1263;18958;-48
2022/03/11 05:49:51;;;;;;;;;16.67;14.00;;;;;21.44;36.22;103013.17;110061;1264;23377;-50
2022/03/11 05:52:18;;;;;;;;;16.00;13.33;;;;;21.50;36.73;103009.23;110021;1265;19066;-49
2022/03/11 05:54:46;;;;;;;;;13.67;13.67;;;;;21.53;37.19;103005.11;110105;1264;18793;-49
2022/03/11 05:57:13;;;;;;;;;13.67;12.67;;;;;21.55;37.63;103004.08;110133;1265;19463;-54
2022/03/11 05:59:40;;;;;;;;;16.00;12.00;;;;;21.60;37.60;103002.57;110109;1264;22081;-51
2022/03/11 06:02:07;;;;;;;;;15.00;13.00;;;;;21.70;37.61;103002.84;110048;1264;18773;-50
2022/03/11 06:04:36;;;;;;;;;16.67;16.00;;;;;21.75;37.77;103003.84;110040;1264;19538;-49
2022/03/11 06:07:03;;;;;;;;;13.67;13.00;;;;;21.75;38.01;103002.75;110060;1264;18671;-49
2022/03/11 06:09:31;;;;;;;;;16.33;14.00;;;;;21.82;38.11;103002.19;110073;1265;18757;-50
2022/03/11 06:11:58;;;;;;;;;12.00;12.00;;;;;21.88;38.52;103003.31;110141;1264;20102;-50
2022/03/11 06:14:25;;;;;;;;;13.00;13.00;;;;;21.93;38.50;103000.34;110125;1264;30826;-50
2022/03/11 06:16:52;;;;;;;;;12.33;11.00;;;;;21.98;38.51;102996.06;110071;1264;18915;-51
2022/03/11 06:19:20;;;;;;;;;14.50;13.50;;;;;22.01;38.39;103003.06;110071;1264;19403;-50
2022/03/11 06:21:47;;;;;;;;;13.67;12.00;;;;;21.99;38.56;102999.40;110058;1264;21845;-48
2022/03/11 06:24:14;;;;;;;;;13.67;13.67;;;;;22.00;38.28;103006.60;110129;1264;18826;-50
2022/03/11 06:26:41;;;;;;;;;11.00;11.00;;;;;22.09;38.49;103009.13;110142;1264;19817;-51
2022/03/11 06:29:10;;;;;;;;;17.00;13.67;;;;;22.12;38.46;103006.02;110024;1264;25355;-48
2022/03/11 06:31:37;;;;;;;;;14.00;11.67;;;;;22.15;38.49;103011.21;110177;1262;21769;-50
2022/03/11 06:34:04;;;;;;;;;14.00;11.00;;;;;22.15;38.46;103011.73;110243;1261;19424;-49
2022/03/11 06:36:34;;;;;;;;;13.00;11.00;;;;;22.18;38.43;103013.92;110273;1262;18726;-50
2022/03/11 06:39:01;;;;;;;;;14.00;13.00;;;;;22.17;38.18;103014.88;110126;1264;22088;-50
2022/03/11 06:41:28;;;;;;;;;14.50;13.00;;;;;22.17;38.08;103014.91;110083;1264;19582;-50
2022/03/11 06:43:55;;;;;;;;;13.33;11.00;;;;;22.18;38.05;103016.86;110041;1265;18662;-50
2022/03/11 06:46:23;;;;;;;;;12.33;10.33;;;;;22.20;37.97;103016.64;110065;1264;18833;-49
2022/03/11 06:48:50;;;;;;;;;13.50;13.00;;;;;22.26;38.16;103014.64;110224;1262;19604;-49
2022/03/11 06:51:17;;;;;;;;;14.33;14.00;;;;;22.35;38.24;103017.33;110046;1265;18679;-52
2022/03/11 06:53:44;;;;;;;;;14.33;13.00;;;;;22.39;38.24;103012.75;110184;1264;19029;-47
2022/03/11 06:56:12;;;;;;;;;14.00;13.33;;;;;22.41;38.00;103015.13;110257;1264;19674;-50
2022/03/11 06:58:39;;;;;;;;;14.00;13.00;;;;;22.39;37.98;103017.50;110131;1264;19642;-49
2022/03/11 07:01:06;;;;;;;;;15.33;15.00;;;;;22.44;37.84;103014.37;110156;1262;18855;-49
2022/03/11 07:03:33;;;;;;;;;12.67;11.33;;;;;22.45;37.67;103014.12;110103;1262;19530;-49
2022/03/11 07:06:01;;;;;;;;;18.00;15.33;;;;;22.45;37.64;103016.10;110125;1262;21231;-49
2022/03/11 07:08:29;;;;;;;;;15.00;15.00;;;;;22.46;37.44;103015.30;109928;1262;19004;-49
2022/03/11 07:10:56;;;;;;;;;23.50;19.50;;;;;22.39;36.73;103019.19;110192;1264;19491;-51
2022/03/11 07:13:23;;;;;;;;;22.67;21.67;;;;;21.94;34.98;103018.85;110190;1263;22197;-49
2022/03/11 07:15:50;;;;;;;;;24.00;22.00;;;;;21.45;33.80;103016.36;110346;1261;18764;-51
2022/03/11 07:18:18;;;;;;;;;26.33;23.00;;;;;21.16;32.73;103019.45;110376;1261;19478;-50
2022/03/11 07:20:45;;;;;;;;;28.67;25.00;;;;;21.05;31.74;103019.22;110181;1262;18989;-53
2022/03/11 07:23:12;;;;;;;;;28.00;25.33;;;;;20.99;31.02;103020.05;110241;1261;20312;-49
2022/03/11 07:25:39;;;;;;;;;29.00;25.67;;;;;20.84;30.09;103018.95;110270;1262;19774;-49
2022/03/11 07:28:07;;;;;;;;;29.33;26.67;;;;;20.69;29.78;103022.09;110148;1262;19004;-53
2022/03/11 07:30:34;;;;;;;;;32.00;28.00;;;;;20.84;29.58;103018.21;110258;1262;19918;-49
2022/03/11 07:33:01;;;;;;;;;28.33;25.00;;;;;21.22;29.92;103018.41;110348;1261;19342;-52
2022/03/11 07:35:29;;;;;;;;;25.00;22.33;;;;;21.59;29.87;103018.86;110321;1262;18841;-50
2022/03/11 07:37:56;;;;;;;;;25.00;24.50;;;;;21.86;30.73;103020.77;110266;1262;19034;-51
2022/03/11 07:40:23;;;;;;;;;29.33;28.33;;;;;21.82;30.12;103022.95;110380;1261;21104;-50
2022/03/11 07:42:50;;;;;;;;;39.00;32.00;;;;;21.79;29.98;103019.71;110250;1262;18710;-49
2022/03/11 07:45:18;;;;;;;;;26.00;25.00;;;;;21.91;29.95;103019.02;110276;1262;18867;-50
2022/03/11 07:47:45;;;;;;;;;25.67;22.33;;;;;22.07;30.36;103019.17;110304;1261;19519;-50
2022/03/11 07:50:12;;;;;;;;;22.50;21.50;;;;;22.19;31.06;103021.84;110203;1262;20252;-53
2022/03/11 07:52:39;;;;;;;;;29.67;22.67;;;;;22.25;31.47;103020.95;110363;1262;18749;-49
2022/03/11 07:55:07;;;;;;;;;25.33;22.00;;;;;22.30;31.52;103018.30;110247;1262;19649;-49
2022/03/11 07:57:36;;;;;;;;;29.33;23.00;;;;;22.37;31.60;103017.84;110401;1261;19533;-50
2022/03/11 08:00:04;;;;;;;;;26.33;25.00;;;;;22.41;31.97;103019.16;110267;1262;18697;-52
2022/03/11 08:02:32;;;;;;;;;24.00;21.33;;;;;22.44;32.34;103027.29;110297;1262;19606;-51
2022/03/11 08:05:00;;;;;;;;;24.33;21.67;;;;;22.50;32.57;103028.43;110273;1262;18757;-51
2022/03/11 08:07:27;;;;;;;;;23.67;22.00;;;;;22.52;32.82;103025.85;110251;1262;19632;-51
2022/03/11 08:09:55;;;;;;;;;23.67;21.00;;;;;22.54;32.94;103028.09;110354;1261;19611;-50
2022/03/11 08:12:22;;;;;;;;;25.33;23.33;;;;;22.55;33.06;103029.44;110263;1262;18696;-48
2022/03/11 08:14:49;;;;;;;;;27.67;21.67;;;;;22.55;32.97;103026.37;110423;1262;20263;-48
2022/03/11 08:17:16;;;;;;;;;28.00;22.67;;;;;22.57;33.13;103016.09;110256;1261;19569;-52
2022/03/11 08:19:43;;;;;;;;;24.67;20.00;;;;;22.62;33.09;103017.16;110231;1262;20171;-48
2022/03/11 08:22:12;;;;;;;;;25.00;22.00;;;;;22.62;32.79;103014.95;110272;1261;19041;-52
2022/03/11 08:24:40;;;;;;;;;25.33;22.33;;;;;22.54;32.45;103009.84;110280;1262;19578;-51
2022/03/11 08:27:08;;;;;;;;;23.00;21.00;;;;;22.51;32.32;103009.90;110235;1262;18981;-49
2022/03/11 08:29:36;;;;;;;;;22.00;21.00;;;;;22.52;32.38;103003.26;110353;1261;19633;-50
2022/03/11 08:32:03;;;;;;;;;27.00;23.50;;;;;22.55;32.27;103004.66;110393;1262;19546;-50
2022/03/11 08:34:30;;;;;;;;;23.50;22.50;;;;;22.58;32.09;103008.57;110368;1262;22280;-50
2022/03/11 08:36:58;;;;;;;;;22.67;21.67;;;;;22.61;32.10;103008.33;110289;1262;19163;-49
2022/03/11 08:39:25;;;;;;;;;19.00;19.00;;;;;22.62;31.99;103010.34;110325;1262;22252;-49
2022/03/11 08:41:52;;;;;;;;;25.67;23.00;;;;;22.63;31.86;103007.55;110417;1261;18745;-50
2022/03/11 08:44:19;;;;;;;;;25.00;22.67;;;;;22.57;31.21;103012.33;110314;1262;18961;-51
2022/03/11 08:46:47;;;;;;;;;24.33;23.67;;;;;22.36;29.57;103017.07;110354;1261;19401;-50
2022/03/11 08:49:14;;;;;;;;;33.00;30.00;;;;;22.16;28.69;103013.12;110330;1262;22195;-50
2022/03/11 08:51:43;;;;;;;;;26.00;26.00;;;;;22.02;29.01;103009.95;110353;1262;18987;-51
2022/03/11 08:54:10;;;;;;;;;30.67;29.67;;;;;22.13;28.92;103013.78;110493;1262;19661;-50
2022/03/11 08:56:39;;;;;;;;;34.67;34.00;;;;;22.19;28.32;103014.73;110391;1262;18833;-50
2022/03/11 08:59:07;;;;;;;;;34.67;32.00;;;;;22.11;26.34;103013.71;110388;1262;22744;-52
2022/03/11 09:01:34;;;;;;;;;34.00;30.00;;;;;21.90;24.95;103016.42;110388;1262;19440;-49
2022/03/11 09:04:01;;;;;;;;;29.67;26.67;;;;;21.76;25.33;103013.27;110358;1262;18726;-52
2022/03/11 09:06:30;;;;;;;;;27.00;26.00;;;;;21.86;27.13;103007.52;110359;1262;20994;-49
2022/03/11 09:08:57;;;;;;;;;32.00;29.00;;;;;22.01;26.73;103011.51;110356;1262;19514;-48
2022/03/11 09:11:24;;;;;;;;;30.67;26.67;;;;;22.00;25.79;103010.97;110408;1262;18739;-49
2022/03/11 09:13:52;;;;;;;;;29.00;26.50;;;;;21.88;24.45;103009.30;110386;1262;18676;-52
2022/03/11 09:16:19;;;;;;;;;28.00;25.50;;;;;21.77;23.97;103009.84;110283;1261;22286;-49
2022/03/11 09:18:46;;;;;;;;;28.67;25.67;;;;;21.79;24.40;103012.05;110309;1261;18745;-52
2022/03/11 09:21:13;;;;;;;;;28.33;24.33;;;;;21.89;24.76;103005.04;110352;1262;19121;-48
2022/03/11 09:23:41;;;;;;;;;25.33;24.67;;;;;22.03;24.85;103005.33;110363;1261;19632;-50
2022/03/11 09:26:08;;;;;;;;;27.00;26.00;;;;;22.14;25.12;103006.23;110372;1261;18731;-50
2022/03/11 09:28:35;;;;;;;;;22.67;22.00;;;;;22.20;25.77;103006.80;110395;1262;22843;-50
2022/03/11 09:31:08;;;;;;;;;26.00;22.00;;;;;22.23;26.06;103001.25;110318;1262;19562;-49
2022/03/11 09:33:35;;;;;;;;;24.33;22.00;;;;;22.23;26.71;102999.03;110348;1262;18838;-51
2022/03/11 09:36:02;;;;;;;;;23.50;21.00;;;;;22.28;27.27;102995.88;110348;1261;18879;-51
2022/03/11 09:38:29;;;;;;;;;22.00;21.00;;;;;22.32;27.84;102998.98;110355;1261;21785;-50
2022/03/11 09:40:57;;;;;;;;;22.33;21.67;;;;;22.34;27.86;102992.99;110401;1262;22194;-48
2022/03/11 09:43:24;;;;;;;;;23.00;21.00;;;;;22.38;28.18;102993.70;110205;1262;19024;-50
2022/03/11 09:45:51;;;;;;;;;21.00;20.67;;;;;22.38;28.43;102990.64;110318;1261;19573;-50
2022/03/11 09:48:19;;;;;;;;;22.00;19.00;;;;;22.38;28.52;102986.45;110261;1262;18764;-51
2022/03/11 09:50:46;;;;;;;;;22.67;18.67;;;;;22.40;28.85;102984.63;110258;1261;18952;-54
2022/03/11 09:53:13;;;;;;;;;20.67;18.67;;;;;22.39;28.96;102986.73;110357;1261;19587;-52
2022/03/11 09:55:40;;;;;;;;;23.67;22.33;;;;;22.33;29.13;102984.33;110398;1262;21622;-49
2022/03/11 09:58:08;;;;;;;;;23.00;21.00;;;;;22.29;29.38;102984.33;110373;1261;22092;-51
2022/03/11 10:00:35;;;;;;;;;21.00;17.00;;;;;22.26;29.65;102982.41;110393;1261;19401;-49
2022/03/11 10:03:02;;;;;;;;;20.67;18.00;;;;;22.24;29.69;102984.37;110439;1261;18988;-49
2022/03/11 10:05:29;;;;;;;;;21.00;19.00;;;;;22.20;29.62;102977.48;110383;1261;18860;-49
2022/03/11 10:07:56;;;;;;;;;21.67;19.00;;;;;22.16;29.33;102983.85;110342;1261;22492;-50
2022/03/11 10:10:24;;;;;;;;;21.00;19.00;;;;;22.16;29.25;102985.05;110350;1262;18780;-49
2022/03/11 10:12:53;;;;;;;;;22.00;19.00;;;;;22.16;28.94;102987.45;110273;1262;18818;-51
2022/03/11 10:15:24;;;;;;;;;18.67;18.00;;;;;21.67;26.62;102984.82;110339;1262;19453;-50
2022/03/11 10:17:51;;;;;;;;;20.00;18.67;;;;;20.88;25.46;102982.84;110194;1262;22374;-49
2022/03/11 10:20:18;;;;;;;;;17.00;16.00;;;;;21.17;25.85;102978.48;110145;1262;18911;-49
2022/03/11 10:22:46;;;;;;;;;16.33;15.33;;;;;21.48;26.17;102980.10;110194;1262;19470;-49
2022/03/11 10:25:13;;;;;;;;;13.67;13.00;;;;;21.73;26.40;102977.60;110298;1261;18761;-49
2022/03/11 10:27:40;;;;;;;;;22.00;18.00;;;;;21.91;26.44;102973.73;110210;1262;19030;-48
2022/03/11 10:30:07;;;;;;;;;17.00;14.67;;;;;22.02;26.82;102973.65;110401;1262;22838;-50
2022/03/11 10:32:35;;;;;;;;;18.67;15.33;;;;;22.09;26.97;102975.64;110368;1261;18700;-54
2022/03/11 10:35:02;;;;;;;;;19.00;16.00;;;;;22.08;26.84;102976.99;110282;1261;22212;-50
2022/03/11 10:37:29;;;;;;;;;17.67;15.67;;;;;21.96;26.70;102974.00;110355;1261;19801;-50
2022/03/11 10:39:56;;;;;;;;;19.00;14.33;;;;;21.97;26.68;102971.00;110184;1265;18719;-50
2022/03/11 10:42:24;;;;;;;;;15.33;14.67;;;;;22.07;26.94;102971.84;110198;1265;22942;-53
2022/03/11 10:44:51;;;;;;;;;17.00;15.33;;;;;22.14;27.08;102968.14;110257;1264;21783;-50
2022/03/11 10:47:18;;;;;;;;;13.33;12.67;;;;;22.17;27.33;102965.88;110180;1264;18900;-51
2022/03/11 10:49:46;;;;;;;;;14.00;13.00;;;;;22.20;27.17;102962.95;110251;1264;18869;-50
2022/03/11 10:52:13;;;;;;;;;16.00;14.33;;;;;22.21;27.35;102953.31;110269;1264;22766;-50
2022/03/11 10:54:40;;;;;;;;;17.00;14.00;;;;;22.19;27.14;102953.95;110256;1264;18804;-49
2022/03/11 10:57:07;;;;;;;;;13.00;13.00;;;;;22.12;26.88;102953.57;110294;1264;18885;-50
2022/03/11 10:59:35;;;;;;;;;13.67;13.00;;;;;22.07;26.30;102952.90;110227;1264;19517;-51
2022/03/11 11:02:02;;;;;;;;;14.33;13.67;;;;;21.58;25.21;102941.39;110198;1265;22260;-50